sensor_id;sensor_type;location;lat;lon;timestamp;temperature;humidity
53880;DHT22;39791;53.184;5.486;2022-10-16T00:01:18;16.30;99.90
53880;DHT22;39791;53.184;5.486;2022-10-16T00:03:44;15.90;99.90
53880;DHT22;39791;53.184;5.486;2022-10-16T00:06:11;15.80;99.90
53880;DHT22;39791;53.184;5.486;2022-10-16T00:08:38;16.20;99.90
53880;DHT22;39791;53.184;5.486;2022-10-16T00:11:05;15.20;99.90
53880;DHT22;39791;53.184;5.486;2022-10-16T00:13:32;16.30;99.90
53880;DHT22;39791;53.184;5.486;2022-10-16T00:15:59;16.30;99.90
53880;DHT22;39791;53.184;5.486;2022-10-16T00:18:25;16.30;99.90
53880;DHT22;39791;53.184;5.486;2022-10-16T00:20:51;16.20;99.90
53880;DHT22;39791;53.184;5.486;2022-10-16T00:23:17;15.20;99.90
53880;DHT22;39791;53.184;5.486;2022-10-16T00:25:42;15.10;99.90
53880;DHT22;39791;53.184;5.486;2022-10-16T00:28:08;14.90;99.90
53880;DHT22;39791;53.184;5.486;2022-10-16T00:30:34;14.90;99.90
53880;DHT22;39791;53.184;5.486;2022-10-16T00:33:02;14.90;99.90
53880;DHT22;39791;53.184;5.486;2022-10-16T00:35:28;15.10;99.90
53880;DHT22;39791;53.184;5.486;2022-10-16T00:37:54;16.00;99.90
53880;DHT22;39791;53.184;5.486;2022-10-16T00:40:20;15.00;99.90
53880;DHT22;39791;53.184;5.486;2022-10-16T00:42:45;14.70;99.90
53880;DHT22;39791;53.184;5.486;2022-10-16T00:45:11;15.80;99.90
53880;DHT22;39791;53.184;5.486;2022-10-16T00:47:44;15.10;99.90
53880;DHT22;39791;53.184;5.486;2022-10-16T00:50:18;16.00;99.90
53880;DHT22;39791;53.184;5.486;2022-10-16T00:52:48;16.10;99.90
53880;DHT22;39791;53.184;5.486;2022-10-16T00:55:15;16.10;99.90
53880;DHT22;39791;53.184;5.486;2022-10-16T00:57:42;16.10;99.90
53880;DHT22;39791;53.184;5.486;2022-10-16T01:00:10;15.20;99.90
53880;DHT22;39791;53.184;5.486;2022-10-16T01:02:36;16.20;99.90
53880;DHT22;39791;53.184;5.486;2022-10-16T01:05:02;16.30;99.90
53880;DHT22;39791;53.184;5.486;2022-10-16T01:10:26;16.20;99.90
53880;DHT22;39791;53.184;5.486;2022-10-16T01:12:59;15.20;99.90
53880;DHT22;39791;53.184;5.486;2022-10-16T01:15:47;15.50;99.90
53880;DHT22;39791;53.184;5.486;2022-10-16T01:18:28;16.30;99.90
53880;DHT22;39791;53.184;5.486;2022-10-16T01:21:01;15.60;99.90
53880;DHT22;39791;53.184;5.486;2022-10-16T01:23:41;15.30;99.90
53880;DHT22;39791;53.184;5.486;2022-10-16T01:28:54;15.40;99.90
53880;DHT22;39791;53.184;5.486;2022-10-16T01:31:24;15.40;99.90
53880;DHT22;39791;53.184;5.486;2022-10-16T01:34:19;16.30;99.90
53880;DHT22;39791;53.184;5.486;2022-10-16T01:36:51;15.70;99.90
53880;DHT22;39791;53.184;5.486;2022-10-16T01:39:21;15.50;99.90
53880;DHT22;39791;53.184;5.486;2022-10-16T01:42:01;16.50;99.90
53880;DHT22;39791;53.184;5.486;2022-10-16T01:44:32;15.50;99.90
53880;DHT22;39791;53.184;5.486;2022-10-16T01:46:59;16.00;99.90
53880;DHT22;39791;53.184;5.486;2022-10-16T01:49:29;15.20;99.90
53880;DHT22;39791;53.184;5.486;2022-10-16T01:51:58;16.10;99.90
53880;DHT22;39791;53.184;5.486;2022-10-16T01:54:27;15.30;99.90
53880;DHT22;39791;53.184;5.486;2022-10-16T01:56:55;15.00;99.90
53880;DHT22;39791;53.184;5.486;2022-10-16T01:59:24;16.50;99.90
53880;DHT22;39791;53.184;5.486;2022-10-16T02:01:54;15.00;99.90
53880;DHT22;39791;53.184;5.486;2022-10-16T02:04:28;15.00;99.90
53880;DHT22;39791;53.184;5.486;2022-10-16T02:06:54;14.90;99.90
53880;DHT22;39791;53.184;5.486;2022-10-16T02:09:20;14.60;99.90
53880;DHT22;39791;53.184;5.486;2022-10-16T02:11:46;16.30;99.90
53880;DHT22;39791;53.184;5.486;2022-10-16T02:14:14;14.90;99.90
53880;DHT22;39791;53.184;5.486;2022-10-16T02:16:45;16.20;99.90
53880;DHT22;39791;53.184;5.486;2022-10-16T02:19:15;16.00;99.90
53880;DHT22;39791;53.184;5.486;2022-10-16T02:21:58;14.50;99.90
53880;DHT22;39791;53.184;5.486;2022-10-16T02:24:49;16.20;99.90
53880;DHT22;39791;53.184;5.486;2022-10-16T02:27:27;15.50;99.90
53880;DHT22;39791;53.184;5.486;2022-10-16T02:30:05;16.00;99.90
53880;DHT22;39791;53.184;5.486;2022-10-16T02:32:34;16.30;99.90
53880;DHT22;39791;53.184;5.486;2022-10-16T02:35:01;15.40;99.90
53880;DHT22;39791;53.184;5.486;2022-10-16T02:37:28;14.50;99.90
53880;DHT22;39791;53.184;5.486;2022-10-16T02:39:55;15.30;99.90
53880;DHT22;39791;53.184;5.486;2022-10-16T02:42:21;15.20;99.90
53880;DHT22;39791;53.184;5.486;2022-10-16T02:44:52;15.60;99.90
53880;DHT22;39791;53.184;5.486;2022-10-16T02:47:18;14.70;99.90
53880;DHT22;39791;53.184;5.486;2022-10-16T02:49:43;15.10;99.90
53880;DHT22;39791;53.184;5.486;2022-10-16T02:52:09;14.70;99.90
53880;DHT22;39791;53.184;5.486;2022-10-16T02:54:34;15.30;99.90
53880;DHT22;39791;53.184;5.486;2022-10-16T02:57:00;16.10;99.90
53880;DHT22;39791;53.184;5.486;2022-10-16T02:59:25;15.90;99.90
53880;DHT22;39791;53.184;5.486;2022-10-16T03:01:51;15.50;99.90
53880;DHT22;39791;53.184;5.486;2022-10-16T03:04:17;14.70;99.90
53880;DHT22;39791;53.184;5.486;2022-10-16T03:06:42;16.00;99.90
53880;DHT22;39791;53.184;5.486;2022-10-16T03:09:08;15.90;99.90
53880;DHT22;39791;53.184;5.486;2022-10-16T03:11:33;15.20;99.90
53880;DHT22;39791;53.184;5.486;2022-10-16T03:13:59;16.00;99.90
53880;DHT22;39791;53.184;5.486;2022-10-16T03:16:24;14.90;99.90
53880;DHT22;39791;53.184;5.486;2022-10-16T03:18:50;14.80;99.90
53880;DHT22;39791;53.184;5.486;2022-10-16T03:21:16;14.80;99.90
53880;DHT22;39791;53.184;5.486;2022-10-16T03:23:42;15.60;99.90
53880;DHT22;39791;53.184;5.486;2022-10-16T03:26:07;15.00;99.90
53880;DHT22;39791;53.184;5.486;2022-10-16T03:28:33;14.90;99.90
53880;DHT22;39791;53.184;5.486;2022-10-16T03:30:58;14.80;99.90
53880;DHT22;39791;53.184;5.486;2022-10-16T03:33:24;15.70;99.90
53880;DHT22;39791;53.184;5.486;2022-10-16T03:35:54;16.00;99.90
53880;DHT22;39791;53.184;5.486;2022-10-16T03:38:21;14.90;99.90
53880;DHT22;39791;53.184;5.486;2022-10-16T03:40:46;15.80;99.90
53880;DHT22;39791;53.184;5.486;2022-10-16T03:43:12;15.90;99.90
53880;DHT22;39791;53.184;5.486;2022-10-16T03:45:38;15.90;99.90
53880;DHT22;39791;53.184;5.486;2022-10-16T03:48:03;14.90;99.90
53880;DHT22;39791;53.184;5.486;2022-10-16T03:50:29;16.00;99.90
53880;DHT22;39791;53.184;5.486;2022-10-16T03:52:55;14.80;99.90
53880;DHT22;39791;53.184;5.486;2022-10-16T03:55:21;15.90;99.90
53880;DHT22;39791;53.184;5.486;2022-10-16T03:57:46;16.00;99.90
53880;DHT22;39791;53.184;5.486;2022-10-16T04:00:12;15.30;99.90
53880;DHT22;39791;53.184;5.486;2022-10-16T04:02:38;15.10;99.90
53880;DHT22;39791;53.184;5.486;2022-10-16T04:05:04;14.90;99.90
53880;DHT22;39791;53.184;5.486;2022-10-16T04:07:30;15.90;99.90
53880;DHT22;39791;53.184;5.486;2022-10-16T04:09:55;16.20;99.90
53880;DHT22;39791;53.184;5.486;2022-10-16T04:12:22;14.80;99.90
53880;DHT22;39791;53.184;5.486;2022-10-16T04:14:48;15.70;99.90
53880;DHT22;39791;53.184;5.486;2022-10-16T04:17:13;14.80;99.90
53880;DHT22;39791;53.184;5.486;2022-10-16T04:19:39;14.80;99.90
53880;DHT22;39791;53.184;5.486;2022-10-16T04:22:04;14.80;99.90
53880;DHT22;39791;53.184;5.486;2022-10-16T04:24:30;16.10;99.90
53880;DHT22;39791;53.184;5.486;2022-10-16T04:26:55;14.90;99.90
53880;DHT22;39791;53.184;5.486;2022-10-16T04:29:22;14.80;99.90
53880;DHT22;39791;53.184;5.486;2022-10-16T04:31:47;15.60;99.90
53880;DHT22;39791;53.184;5.486;2022-10-16T04:34:13;16.10;99.90
53880;DHT22;39791;53.184;5.486;2022-10-16T04:36:38;14.80;99.90
53880;DHT22;39791;53.184;5.486;2022-10-16T04:39:04;14.90;99.90
53880;DHT22;39791;53.184;5.486;2022-10-16T04:41:29;14.70;99.90
53880;DHT22;39791;53.184;5.486;2022-10-16T04:43:55;16.00;99.90
53880;DHT22;39791;53.184;5.486;2022-10-16T04:46:20;16.00;99.90
53880;DHT22;39791;53.184;5.486;2022-10-16T04:48:46;14.80;99.90
53880;DHT22;39791;53.184;5.486;2022-10-16T04:51:12;14.70;99.90
53880;DHT22;39791;53.184;5.486;2022-10-16T04:53:38;14.80;99.90
53880;DHT22;39791;53.184;5.486;2022-10-16T04:56:03;15.40;99.90
53880;DHT22;39791;53.184;5.486;2022-10-16T04:58:29;15.70;99.90
53880;DHT22;39791;53.184;5.486;2022-10-16T05:00:55;14.80;99.90
53880;DHT22;39791;53.184;5.486;2022-10-16T05:03:20;14.80;99.90
53880;DHT22;39791;53.184;5.486;2022-10-16T05:05:46;16.00;99.90
53880;DHT22;39791;53.184;5.486;2022-10-16T05:08:16;16.00;99.90
53880;DHT22;39791;53.184;5.486;2022-10-16T05:10:43;15.30;99.90
53880;DHT22;39791;53.184;5.486;2022-10-16T05:13:09;16.00;99.90
53880;DHT22;39791;53.184;5.486;2022-10-16T05:15:35;15.50;99.90
53880;DHT22;39791;53.184;5.486;2022-10-16T05:18:00;15.00;99.90
53880;DHT22;39791;53.184;5.486;2022-10-16T05:20:26;15.50;99.90
53880;DHT22;39791;53.184;5.486;2022-10-16T05:22:51;15.30;99.90
53880;DHT22;39791;53.184;5.486;2022-10-16T05:25:17;14.70;99.90
53880;DHT22;39791;53.184;5.486;2022-10-16T05:27:43;14.90;99.90
53880;DHT22;39791;53.184;5.486;2022-10-16T05:30:09;15.40;99.90
53880;DHT22;39791;53.184;5.486;2022-10-16T05:32:34;15.20;99.90
53880;DHT22;39791;53.184;5.486;2022-10-16T05:35:00;16.20;99.90
53880;DHT22;39791;53.184;5.486;2022-10-16T05:37:27;14.80;99.90
53880;DHT22;39791;53.184;5.486;2022-10-16T05:39:53;14.60;99.90
53880;DHT22;39791;53.184;5.486;2022-10-16T05:42:18;14.80;99.90
53880;DHT22;39791;53.184;5.486;2022-10-16T05:44:44;14.50;99.90
53880;DHT22;39791;53.184;5.486;2022-10-16T05:47:11;14.50;99.90
53880;DHT22;39791;53.184;5.486;2022-10-16T05:49:37;14.40;99.90
53880;DHT22;39791;53.184;5.486;2022-10-16T05:52:03;15.80;99.90
53880;DHT22;39791;53.184;5.486;2022-10-16T05:54:28;14.40;99.90
53880;DHT22;39791;53.184;5.486;2022-10-16T05:56:54;15.90;99.90
53880;DHT22;39791;53.184;5.486;2022-10-16T05:59:19;14.60;99.90
53880;DHT22;39791;53.184;5.486;2022-10-16T06:01:45;15.80;99.90
53880;DHT22;39791;53.184;5.486;2022-10-16T06:04:10;15.70;99.90
53880;DHT22;39791;53.184;5.486;2022-10-16T06:06:36;14.50;99.90
53880;DHT22;39791;53.184;5.486;2022-10-16T06:09:02;15.80;99.90
53880;DHT22;39791;53.184;5.486;2022-10-16T06:11:30;15.60;99.90
53880;DHT22;39791;53.184;5.486;2022-10-16T06:13:58;15.10;99.90
53880;DHT22;39791;53.184;5.486;2022-10-16T06:16:26;14.50;99.90
53880;DHT22;39791;53.184;5.486;2022-10-16T06:18:52;15.50;99.90
53880;DHT22;39791;53.184;5.486;2022-10-16T06:21:20;15.00;99.90
53880;DHT22;39791;53.184;5.486;2022-10-16T06:23:47;15.20;99.90
53880;DHT22;39791;53.184;5.486;2022-10-16T06:26:15;15.70;99.90
53880;DHT22;39791;53.184;5.486;2022-10-16T06:28:41;14.80;99.90
53880;DHT22;39791;53.184;5.486;2022-10-16T06:31:08;14.90;99.90
53880;DHT22;39791;53.184;5.486;2022-10-16T06:33:34;14.80;99.90
53880;DHT22;39791;53.184;5.486;2022-10-16T06:36:01;15.90;99.90
53880;DHT22;39791;53.184;5.486;2022-10-16T06:38:27;16.00;99.90
53880;DHT22;39791;53.184;5.486;2022-10-16T06:40:53;15.90;99.90
53880;DHT22;39791;53.184;5.486;2022-10-16T06:43:19;16.00;99.90
53880;DHT22;39791;53.184;5.486;2022-10-16T06:45:51;15.70;99.90
53880;DHT22;39791;53.184;5.486;2022-10-16T06:48:17;14.70;99.90
53880;DHT22;39791;53.184;5.486;2022-10-16T06:50:42;15.50;99.90
53880;DHT22;39791;53.184;5.486;2022-10-16T06:53:08;14.80;99.90
53880;DHT22;39791;53.184;5.486;2022-10-16T06:55:33;14.90;99.90
53880;DHT22;39791;53.184;5.486;2022-10-16T06:57:59;15.00;99.90
53880;DHT22;39791;53.184;5.486;2022-10-16T07:00:24;15.80;99.90
53880;DHT22;39791;53.184;5.486;2022-10-16T07:02:50;16.20;99.90
53880;DHT22;39791;53.184;5.486;2022-10-16T07:05:15;16.10;99.90
53880;DHT22;39791;53.184;5.486;2022-10-16T07:07:41;16.00;99.90
53880;DHT22;39791;53.184;5.486;2022-10-16T07:10:07;15.00;99.90
53880;DHT22;39791;53.184;5.486;2022-10-16T07:12:33;14.90;99.90
53880;DHT22;39791;53.184;5.486;2022-10-16T07:14:58;16.50;99.90
53880;DHT22;39791;53.184;5.486;2022-10-16T07:17:24;16.60;99.90
53880;DHT22;39791;53.184;5.486;2022-10-16T07:19:50;15.70;99.90
53880;DHT22;39791;53.184;5.486;2022-10-16T07:22:18;16.50;99.90
53880;DHT22;39791;53.184;5.486;2022-10-16T07:24:43;15.20;99.90
53880;DHT22;39791;53.184;5.486;2022-10-16T07:27:10;15.30;99.90
53880;DHT22;39791;53.184;5.486;2022-10-16T07:29:35;16.40;99.90
53880;DHT22;39791;53.184;5.486;2022-10-16T07:32:01;16.30;99.90
53880;DHT22;39791;53.184;5.486;2022-10-16T07:34:27;15.20;99.90
53880;DHT22;39791;53.184;5.486;2022-10-16T07:36:53;16.40;99.90
53880;DHT22;39791;53.184;5.486;2022-10-16T07:39:18;15.30;99.90
53880;DHT22;39791;53.184;5.486;2022-10-16T07:41:44;15.80;99.90
53880;DHT22;39791;53.184;5.486;2022-10-16T07:44:10;15.50;99.90
53880;DHT22;39791;53.184;5.486;2022-10-16T07:46:35;15.90;99.90
53880;DHT22;39791;53.184;5.486;2022-10-16T07:49:02;15.80;99.90
53880;DHT22;39791;53.184;5.486;2022-10-16T07:51:28;16.70;99.90
53880;DHT22;39791;53.184;5.486;2022-10-16T07:53:54;15.90;99.90
53880;DHT22;39791;53.184;5.486;2022-10-16T07:56:21;16.40;99.90
53880;DHT22;39791;53.184;5.486;2022-10-16T07:58:47;15.50;99.90
53880;DHT22;39791;53.184;5.486;2022-10-16T08:01:15;16.30;99.90
53880;DHT22;39791;53.184;5.486;2022-10-16T08:03:43;16.30;99.90
53880;DHT22;39791;53.184;5.486;2022-10-16T08:06:09;16.30;99.90
53880;DHT22;39791;53.184;5.486;2022-10-16T08:08:34;15.80;99.90
53880;DHT22;39791;53.184;5.486;2022-10-16T08:11:00;15.90;99.90
53880;DHT22;39791;53.184;5.486;2022-10-16T08:13:28;15.80;99.90
53880;DHT22;39791;53.184;5.486;2022-10-16T08:15:54;17.00;99.90
53880;DHT22;39791;53.184;5.486;2022-10-16T08:18:20;17.00;99.90
53880;DHT22;39791;53.184;5.486;2022-10-16T08:20:46;17.40;99.90
53880;DHT22;39791;53.184;5.486;2022-10-16T08:23:12;17.20;99.90
53880;DHT22;39791;53.184;5.486;2022-10-16T08:25:39;17.40;99.90
53880;DHT22;39791;53.184;5.486;2022-10-16T08:28:10;18.10;99.90
53880;DHT22;39791;53.184;5.486;2022-10-16T08:30:36;16.80;99.90
53880;DHT22;39791;53.184;5.486;2022-10-16T08:33:02;17.20;99.90
53880;DHT22;39791;53.184;5.486;2022-10-16T08:35:28;17.50;99.90
53880;DHT22;39791;53.184;5.486;2022-10-16T08:37:54;17.10;99.90
53880;DHT22;39791;53.184;5.486;2022-10-16T08:40:24;17.40;99.90
53880;DHT22;39791;53.184;5.486;2022-10-16T08:43:16;18.30;99.90
53880;DHT22;39791;53.184;5.486;2022-10-16T08:48:53;17.80;99.90
53880;DHT22;39791;53.184;5.486;2022-10-16T08:51:31;18.50;99.90
53880;DHT22;39791;53.184;5.486;2022-10-16T08:54:15;18.80;99.90
53880;DHT22;39791;53.184;5.486;2022-10-16T08:56:42;17.90;99.90
53880;DHT22;39791;53.184;5.486;2022-10-16T08:59:10;18.20;99.90
53880;DHT22;39791;53.184;5.486;2022-10-16T09:01:44;18.00;99.90
53880;DHT22;39791;53.184;5.486;2022-10-16T09:07:03;18.80;99.90
53880;DHT22;39791;53.184;5.486;2022-10-16T09:20:38;18.30;99.90
53880;DHT22;39791;53.184;5.486;2022-10-16T09:23:16;18.40;99.90
53880;DHT22;39791;53.184;5.486;2022-10-16T09:25:45;18.20;99.90
53880;DHT22;39791;53.184;5.486;2022-10-16T09:28:11;18.40;99.90
53880;DHT22;39791;53.184;5.486;2022-10-16T09:30:37;18.30;99.90
53880;DHT22;39791;53.184;5.486;2022-10-16T09:33:05;18.30;99.90
53880;DHT22;39791;53.184;5.486;2022-10-16T09:35:49;18.30;99.90
53880;DHT22;39791;53.184;5.486;2022-10-16T09:40:51;18.30;99.90
53880;DHT22;39791;53.184;5.486;2022-10-16T09:43:26;18.10;99.90
53880;DHT22;39791;53.184;5.486;2022-10-16T09:46:00;17.90;99.90
53880;DHT22;39791;53.184;5.486;2022-10-16T09:51:02;17.80;99.90
53880;DHT22;39791;53.184;5.486;2022-10-16T09:53:41;17.90;99.90
53880;DHT22;39791;53.184;5.486;2022-10-16T09:56:07;17.90;99.90
53880;DHT22;39791;53.184;5.486;2022-10-16T09:58:35;17.90;99.90
53880;DHT22;39791;53.184;5.486;2022-10-16T10:01:01;18.00;99.90
53880;DHT22;39791;53.184;5.486;2022-10-16T10:03:38;17.90;99.90
53880;DHT22;39791;53.184;5.486;2022-10-16T10:06:26;17.90;99.90
53880;DHT22;39791;53.184;5.486;2022-10-16T10:08:57;18.00;99.90
53880;DHT22;39791;53.184;5.486;2022-10-16T10:11:56;18.10;99.90
53880;DHT22;39791;53.184;5.486;2022-10-16T10:14:43;17.90;99.90
53880;DHT22;39791;53.184;5.486;2022-10-16T10:17:16;17.90;99.90
53880;DHT22;39791;53.184;5.486;2022-10-16T10:22:44;18.10;99.90
53880;DHT22;39791;53.184;5.486;2022-10-16T10:32:50;18.10;99.90
53880;DHT22;39791;53.184;5.486;2022-10-16T10:38:06;18.10;99.90
53880;DHT22;39791;53.184;5.486;2022-10-16T10:46:03;18.40;99.90
53880;DHT22;39791;53.184;5.486;2022-10-16T10:48:43;18.20;99.90
53880;DHT22;39791;53.184;5.486;2022-10-16T10:51:17;18.30;99.90
53880;DHT22;39791;53.184;5.486;2022-10-16T10:53:56;18.30;99.90
53880;DHT22;39791;53.184;5.486;2022-10-16T10:59:05;18.20;99.90
53880;DHT22;39791;53.184;5.486;2022-10-16T11:04:34;18.10;99.90
53880;DHT22;39791;53.184;5.486;2022-10-16T11:07:25;18.00;99.90
53880;DHT22;39791;53.184;5.486;2022-10-16T11:10:04;18.20;99.90
53880;DHT22;39791;53.184;5.486;2022-10-16T11:12:36;18.10;99.90
53880;DHT22;39791;53.184;5.486;2022-10-16T11:15:15;18.10;99.90
53880;DHT22;39791;53.184;5.486;2022-10-16T11:17:50;18.00;99.90
53880;DHT22;39791;53.184;5.486;2022-10-16T11:20:21;18.20;99.90
53880;DHT22;39791;53.184;5.486;2022-10-16T11:23:09;18.20;99.90
53880;DHT22;39791;53.184;5.486;2022-10-16T11:25:37;18.20;99.90
53880;DHT22;39791;53.184;5.486;2022-10-16T11:31:03;18.10;99.90
53880;DHT22;39791;53.184;5.486;2022-10-16T11:33:37;18.00;99.90
53880;DHT22;39791;53.184;5.486;2022-10-16T11:36:16;18.00;99.90
53880;DHT22;39791;53.184;5.486;2022-10-16T11:46:52;18.00;99.90
53880;DHT22;39791;53.184;5.486;2022-10-16T11:49:25;18.00;99.90
53880;DHT22;39791;53.184;5.486;2022-10-16T11:52:16;18.00;99.90
53880;DHT22;39791;53.184;5.486;2022-10-16T11:54:51;17.90;99.90
53880;DHT22;39791;53.184;5.486;2022-10-16T11:57:43;17.80;99.90
53880;DHT22;39791;53.184;5.486;2022-10-16T12:00:21;17.90;99.90
53880;DHT22;39791;53.184;5.486;2022-10-16T12:03:11;17.80;99.90
53880;DHT22;39791;53.184;5.486;2022-10-16T12:08:23;17.80;99.90
53880;DHT22;39791;53.184;5.486;2022-10-16T12:10:51;17.80;99.90
53880;DHT22;39791;53.184;5.486;2022-10-16T12:18:42;17.90;99.90
53880;DHT22;39791;53.184;5.486;2022-10-16T12:21:09;17.80;99.90
53880;DHT22;39791;53.184;5.486;2022-10-16T12:26:12;18.00;99.90
53880;DHT22;39791;53.184;5.486;2022-10-16T12:28:37;17.80;99.90
53880;DHT22;39791;53.184;5.486;2022-10-16T12:31:09;17.70;99.90
53880;DHT22;39791;53.184;5.486;2022-10-16T12:33:40;17.70;99.90
53880;DHT22;39791;53.184;5.486;2022-10-16T12:36:15;17.70;99.90
53880;DHT22;39791;53.184;5.486;2022-10-16T12:38:50;17.70;99.90
53880;DHT22;39791;53.184;5.486;2022-10-16T12:41:32;17.80;99.90
53880;DHT22;39791;53.184;5.486;2022-10-16T12:43:59;17.70;99.90
53880;DHT22;39791;53.184;5.486;2022-10-16T12:51:39;17.70;99.90
53880;DHT22;39791;53.184;5.486;2022-10-16T12:54:25;17.70;99.90
53880;DHT22;39791;53.184;5.486;2022-10-16T13:00:13;17.70;99.90
53880;DHT22;39791;53.184;5.486;2022-10-16T13:03:04;17.60;99.90
53880;DHT22;39791;53.184;5.486;2022-10-16T13:05:54;17.60;99.90
53880;DHT22;39791;53.184;5.486;2022-10-16T13:14:07;17.50;99.90
53880;DHT22;39791;53.184;5.486;2022-10-16T13:19:52;17.40;99.90
53880;DHT22;39791;53.184;5.486;2022-10-16T13:25:47;17.30;99.90
53880;DHT22;39791;53.184;5.486;2022-10-16T13:28:17;17.20;99.90
53880;DHT22;39791;53.184;5.486;2022-10-16T13:30:52;17.20;99.90
53880;DHT22;39791;53.184;5.486;2022-10-16T13:35:54;17.00;99.90
53880;DHT22;39791;53.184;5.486;2022-10-16T13:38:22;17.10;99.90
53880;DHT22;39791;53.184;5.486;2022-10-16T13:40:54;17.00;99.90
53880;DHT22;39791;53.184;5.486;2022-10-16T13:43:24;17.00;99.90
53880;DHT22;39791;53.184;5.486;2022-10-16T13:45:56;16.90;99.90
53880;DHT22;39791;53.184;5.486;2022-10-16T13:48:22;17.10;99.90
53880;DHT22;39791;53.184;5.486;2022-10-16T13:51:02;17.10;99.90
53880;DHT22;39791;53.184;5.486;2022-10-16T13:53:30;17.00;99.90
53880;DHT22;39791;53.184;5.486;2022-10-16T13:55:56;17.20;99.90
53880;DHT22;39791;53.184;5.486;2022-10-16T13:58:22;17.10;99.90
53880;DHT22;39791;53.184;5.486;2022-10-16T14:00:56;17.10;99.90
53880;DHT22;39791;53.184;5.486;2022-10-16T14:03:22;17.20;99.90
53880;DHT22;39791;53.184;5.486;2022-10-16T14:06:15;17.30;99.90
53880;DHT22;39791;53.184;5.486;2022-10-16T14:08:47;17.10;99.90
53880;DHT22;39791;53.184;5.486;2022-10-16T14:11:21;17.20;99.90
53880;DHT22;39791;53.184;5.486;2022-10-16T14:13:48;17.20;99.90
53880;DHT22;39791;53.184;5.486;2022-10-16T14:16:22;17.20;99.90
53880;DHT22;39791;53.184;5.486;2022-10-16T14:18:59;17.20;99.90
53880;DHT22;39791;53.184;5.486;2022-10-16T14:21:26;17.00;99.90
53880;DHT22;39791;53.184;5.486;2022-10-16T14:23:52;17.00;99.90
53880;DHT22;39791;53.184;5.486;2022-10-16T14:26:21;17.00;99.90
53880;DHT22;39791;53.184;5.486;2022-10-16T14:28:48;16.90;99.90
53880;DHT22;39791;53.184;5.486;2022-10-16T14:31:29;16.90;99.90
53880;DHT22;39791;53.184;5.486;2022-10-16T14:33:56;16.90;99.90
53880;DHT22;39791;53.184;5.486;2022-10-16T14:36:22;16.90;99.90
53880;DHT22;39791;53.184;5.486;2022-10-16T14:38:55;16.90;99.90
53880;DHT22;39791;53.184;5.486;2022-10-16T14:41:22;16.80;99.90
53880;DHT22;39791;53.184;5.486;2022-10-16T14:43:52;16.80;99.90
53880;DHT22;39791;53.184;5.486;2022-10-16T14:46:21;16.90;99.90
53880;DHT22;39791;53.184;5.486;2022-10-16T14:48:58;16.70;99.90
53880;DHT22;39791;53.184;5.486;2022-10-16T14:51:25;16.50;99.90
53880;DHT22;39791;53.184;5.486;2022-10-16T14:53:51;16.40;99.90
53880;DHT22;39791;53.184;5.486;2022-10-16T14:56:20;16.40;99.90
53880;DHT22;39791;53.184;5.486;2022-10-16T14:58:46;16.30;99.90
53880;DHT22;39791;53.184;5.486;2022-10-16T15:01:12;16.20;99.90
53880;DHT22;39791;53.184;5.486;2022-10-16T15:03:38;16.20;99.90
53880;DHT22;39791;53.184;5.486;2022-10-16T15:06:10;16.60;99.90
53880;DHT22;39791;53.184;5.486;2022-10-16T15:08:37;16.20;99.90
53880;DHT22;39791;53.184;5.486;2022-10-16T15:11:02;16.30;99.90
53880;DHT22;39791;53.184;5.486;2022-10-16T15:13:28;16.40;99.90
53880;DHT22;39791;53.184;5.486;2022-10-16T15:15:54;16.30;99.90
53880;DHT22;39791;53.184;5.486;2022-10-16T15:18:19;16.30;99.90
53880;DHT22;39791;53.184;5.486;2022-10-16T15:20:48;16.10;99.90
53880;DHT22;39791;53.184;5.486;2022-10-16T15:23:19;16.30;99.90
53880;DHT22;39791;53.184;5.486;2022-10-16T15:25:50;16.00;99.90
53880;DHT22;39791;53.184;5.486;2022-10-16T15:28:17;16.10;99.90
53880;DHT22;39791;53.184;5.486;2022-10-16T15:30:43;16.20;99.90
53880;DHT22;39791;53.184;5.486;2022-10-16T15:33:21;16.00;99.90
53880;DHT22;39791;53.184;5.486;2022-10-16T15:35:49;15.90;99.90
53880;DHT22;39791;53.184;5.486;2022-10-16T15:38:16;16.00;99.90
53880;DHT22;39791;53.184;5.486;2022-10-16T15:40:42;16.00;99.90
53880;DHT22;39791;53.184;5.486;2022-10-16T15:43:08;15.70;99.90
53880;DHT22;39791;53.184;5.486;2022-10-16T15:45:34;15.70;99.90
53880;DHT22;39791;53.184;5.486;2022-10-16T15:48:00;15.80;99.90
53880;DHT22;39791;53.184;5.486;2022-10-16T15:50:26;15.70;99.90
53880;DHT22;39791;53.184;5.486;2022-10-16T15:52:51;15.70;99.90
53880;DHT22;39791;53.184;5.486;2022-10-16T15:55:17;15.80;99.90
53880;DHT22;39791;53.184;5.486;2022-10-16T15:57:45;15.70;99.90
53880;DHT22;39791;53.184;5.486;2022-10-16T16:00:17;15.60;99.90
53880;DHT22;39791;53.184;5.486;2022-10-16T16:02:43;15.50;99.90
53880;DHT22;39791;53.184;5.486;2022-10-16T16:05:10;15.50;99.90
53880;DHT22;39791;53.184;5.486;2022-10-16T16:07:40;15.40;99.90
53880;DHT22;39791;53.184;5.486;2022-10-16T16:10:07;15.50;99.90
53880;DHT22;39791;53.184;5.486;2022-10-16T16:12:34;15.30;99.90
53880;DHT22;39791;53.184;5.486;2022-10-16T16:14:59;15.50;99.90
53880;DHT22;39791;53.184;5.486;2022-10-16T16:17:25;15.40;99.90
53880;DHT22;39791;53.184;5.486;2022-10-16T16:19:51;15.20;99.90
53880;DHT22;39791;53.184;5.486;2022-10-16T16:22:17;15.20;99.90
53880;DHT22;39791;53.184;5.486;2022-10-16T16:24:42;15.20;99.90
53880;DHT22;39791;53.184;5.486;2022-10-16T16:27:08;15.00;99.90
53880;DHT22;39791;53.184;5.486;2022-10-16T16:29:34;15.30;99.90
53880;DHT22;39791;53.184;5.486;2022-10-16T16:32:00;15.00;99.90
53880;DHT22;39791;53.184;5.486;2022-10-16T16:34:27;15.20;99.90
53880;DHT22;39791;53.184;5.486;2022-10-16T16:36:54;14.90;99.90
53880;DHT22;39791;53.184;5.486;2022-10-16T16:39:20;15.20;99.90
53880;DHT22;39791;53.184;5.486;2022-10-16T16:41:46;14.90;99.90
53880;DHT22;39791;53.184;5.486;2022-10-16T16:44:13;15.10;99.90
53880;DHT22;39791;53.184;5.486;2022-10-16T16:46:39;15.00;99.90
53880;DHT22;39791;53.184;5.486;2022-10-16T16:49:06;14.70;99.90
53880;DHT22;39791;53.184;5.486;2022-10-16T16:51:32;14.70;99.90
53880;DHT22;39791;53.184;5.486;2022-10-16T16:53:58;14.80;99.90
53880;DHT22;39791;53.184;5.486;2022-10-16T16:56:25;14.80;99.90
53880;DHT22;39791;53.184;5.486;2022-10-16T16:58:53;14.50;99.90
53880;DHT22;39791;53.184;5.486;2022-10-16T17:01:20;14.80;99.90
53880;DHT22;39791;53.184;5.486;2022-10-16T17:03:46;14.70;99.90
53880;DHT22;39791;53.184;5.486;2022-10-16T17:06:14;14.60;99.90
53880;DHT22;39791;53.184;5.486;2022-10-16T17:08:41;14.60;99.90
53880;DHT22;39791;53.184;5.486;2022-10-16T17:11:15;14.50;99.90
53880;DHT22;39791;53.184;5.486;2022-10-16T17:13:41;14.50;99.90
53880;DHT22;39791;53.184;5.486;2022-10-16T17:16:08;14.40;99.90
53880;DHT22;39791;53.184;5.486;2022-10-16T17:18:34;14.70;99.90